sensor_id;sensor_type;location;lat;lon;timestamp;P1;durP1;ratioP1;P2;durP2;ratioP2
67762;SDS011;54566;52.022;5.582;2023-08-12T00:00:18;13.88;;;8.48;;
67762;SDS011;54566;52.022;5.582;2023-08-12T00:02:45;23.35;;;8.52;;
67762;SDS011;54566;52.022;5.582;2023-08-12T00:05:11;18.65;;;9.25;;
67762;SDS011;54566;52.022;5.582;2023-08-12T00:07:37;17.52;;;9.32;;
67762;SDS011;54566;52.022;5.582;2023-08-12T00:10:04;23.17;;;9.90;;
67762;SDS011;54566;52.022;5.582;2023-08-12T00:12:31;19.45;;;9.10;;
67762;SDS011;54566;52.022;5.582;2023-08-12T00:14:57;17.60;;;9.77;;
67762;SDS011;54566;52.022;5.582;2023-08-12T00:17:24;17.03;;;9.80;;
67762;SDS011;54566;52.022;5.582;2023-08-12T00:19:50;14.63;;;9.15;;
67762;SDS011;54566;52.022;5.582;2023-08-12T00:22:16;19.10;;;10.00;;
67762;SDS011;54566;52.022;5.582;2023-08-12T00:24:42;20.75;;;9.98;;
67762;SDS011;54566;52.022;5.582;2023-08-12T00:27:09;17.27;;;9.57;;
67762;SDS011;54566;52.022;5.582;2023-08-12T00:29:35;17.98;;;10.07;;
67762;SDS011;54566;52.022;5.582;2023-08-12T00:32:01;16.83;;;9.27;;
67762;SDS011;54566;52.022;5.582;2023-08-12T00:34:29;20.05;;;10.20;;
67762;SDS011;54566;52.022;5.582;2023-08-12T00:36:55;23.90;;;11.17;;
67762;SDS011;54566;52.022;5.582;2023-08-12T00:39:21;18.73;;;9.65;;
67762;SDS011;54566;52.022;5.582;2023-08-12T00:41:48;15.02;;;9.27;;
67762;SDS011;54566;52.022;5.582;2023-08-12T00:44:14;21.02;;;9.82;;
67762;SDS011;54566;52.022;5.582;2023-08-12T00:46:41;17.27;;;9.18;;
67762;SDS011;54566;52.022;5.582;2023-08-12T00:49:07;16.75;;;10.15;;
67762;SDS011;54566;52.022;5.582;2023-08-12T00:51:34;21.08;;;9.60;;
67762;SDS011;54566;52.022;5.582;2023-08-12T00:54:01;21.13;;;10.45;;
67762;SDS011;54566;52.022;5.582;2023-08-12T00:56:28;17.80;;;9.40;;
67762;SDS011;54566;52.022;5.582;2023-08-12T00:58:54;21.70;;;9.77;;
67762;SDS011;54566;52.022;5.582;2023-08-12T01:01:21;19.88;;;9.80;;
67762;SDS011;54566;52.022;5.582;2023-08-12T01:03:47;17.65;;;9.95;;
67762;SDS011;54566;52.022;5.582;2023-08-12T01:06:13;15.15;;;9.43;;
67762;SDS011;54566;52.022;5.582;2023-08-12T01:08:39;20.67;;;10.02;;
67762;SDS011;54566;52.022;5.582;2023-08-12T01:11:16;19.65;;;9.48;;
67762;SDS011;54566;52.022;5.582;2023-08-12T01:13:57;16.17;;;10.13;;
67762;SDS011;54566;52.022;5.582;2023-08-12T01:16:25;21.17;;;10.20;;
67762;SDS011;54566;52.022;5.582;2023-08-12T01:18:55;17.50;;;9.82;;
67762;SDS011;54566;52.022;5.582;2023-08-12T01:21:21;27.58;;;9.77;;
67762;SDS011;54566;52.022;5.582;2023-08-12T01:23:50;31.67;;;10.52;;
67762;SDS011;54566;52.022;5.582;2023-08-12T01:26:16;20.65;;;9.30;;
67762;SDS011;54566;52.022;5.582;2023-08-12T01:28:42;18.52;;;10.45;;
67762;SDS011;54566;52.022;5.582;2023-08-12T01:36:12;23.63;;;10.57;;
67762;SDS011;54566;52.022;5.582;2023-08-12T01:38:40;17.42;;;10.23;;
67762;SDS011;54566;52.022;5.582;2023-08-12T01:41:08;24.75;;;11.10;;
67762;SDS011;54566;52.022;5.582;2023-08-12T01:43:35;22.73;;;10.23;;
67762;SDS011;54566;52.022;5.582;2023-08-12T01:46:03;30.15;;;11.10;;
67762;SDS011;54566;52.022;5.582;2023-08-12T01:48:29;19.63;;;9.98;;
67762;SDS011;54566;52.022;5.582;2023-08-12T01:50:58;19.88;;;10.25;;
67762;SDS011;54566;52.022;5.582;2023-08-12T01:53:28;18.25;;;10.13;;
67762;SDS011;54566;52.022;5.582;2023-08-12T01:55:54;16.20;;;10.27;;
67762;SDS011;54566;52.022;5.582;2023-08-12T01:58:21;18.83;;;10.18;;
67762;SDS011;54566;52.022;5.582;2023-08-12T02:00:48;22.02;;;9.85;;
67762;SDS011;54566;52.022;5.582;2023-08-12T02:03:14;23.92;;;10.93;;
67762;SDS011;54566;52.022;5.582;2023-08-12T02:05:40;16.63;;;9.45;;
67762;SDS011;54566;52.022;5.582;2023-08-12T02:08:06;18.67;;;10.40;;
67762;SDS011;54566;52.022;5.582;2023-08-12T02:10:32;22.75;;;10.55;;
67762;SDS011;54566;52.022;5.582;2023-08-12T02:12:58;22.58;;;10.27;;
67762;SDS011;54566;52.022;5.582;2023-08-12T02:15:24;20.90;;;11.00;;
67762;SDS011;54566;52.022;5.582;2023-08-12T02:17:50;17.10;;;10.95;;
67762;SDS011;54566;52.022;5.582;2023-08-12T02:20:16;25.23;;;11.68;;
67762;SDS011;54566;52.022;5.582;2023-08-12T02:22:43;22.25;;;12.48;;
67762;SDS011;54566;52.022;5.582;2023-08-12T02:25:09;17.63;;;11.45;;
67762;SDS011;54566;52.022;5.582;2023-08-12T02:27:35;22.95;;;11.32;;
67762;SDS011;54566;52.022;5.582;2023-08-12T02:30:01;20.67;;;12.48;;
67762;SDS011;54566;52.022;5.582;2023-08-12T02:32:28;23.30;;;12.90;;
67762;SDS011;54566;52.022;5.582;2023-08-12T02:34:54;17.90;;;11.75;;
67762;SDS011;54566;52.022;5.582;2023-08-12T02:37:21;26.88;;;12.75;;
67762;SDS011;54566;52.022;5.582;2023-08-12T02:39:47;24.55;;;12.73;;
67762;SDS011;54566;52.022;5.582;2023-08-12T02:42:13;27.83;;;13.18;;
67762;SDS011;54566;52.022;5.582;2023-08-12T02:44:41;25.50;;;13.00;;
67762;SDS011;54566;52.022;5.582;2023-08-12T02:47:07;25.95;;;12.68;;
67762;SDS011;54566;52.022;5.582;2023-08-12T02:49:33;23.77;;;12.93;;
67762;SDS011;54566;52.022;5.582;2023-08-12T02:51:59;28.83;;;13.32;;
67762;SDS011;54566;52.022;5.582;2023-08-12T02:54:25;20.80;;;12.93;;
67762;SDS011;54566;52.022;5.582;2023-08-12T02:56:51;28.27;;;13.57;;
67762;SDS011;54566;52.022;5.582;2023-08-12T02:59:17;20.52;;;12.02;;
67762;SDS011;54566;52.022;5.582;2023-08-12T03:01:43;27.15;;;13.45;;
67762;SDS011;54566;52.022;5.582;2023-08-12T03:04:09;27.67;;;13.55;;
67762;SDS011;54566;52.022;5.582;2023-08-12T03:06:36;23.20;;;13.85;;
67762;SDS011;54566;52.022;5.582;2023-08-12T03:09:02;29.80;;;14.15;;
67762;SDS011;54566;52.022;5.582;2023-08-12T03:11:28;27.88;;;13.93;;
67762;SDS011;54566;52.022;5.582;2023-08-12T03:13:54;23.45;;;12.93;;
67762;SDS011;54566;52.022;5.582;2023-08-12T03:16:20;25.70;;;13.18;;
67762;SDS011;54566;52.022;5.582;2023-08-12T03:18:46;27.70;;;14.02;;
67762;SDS011;54566;52.022;5.582;2023-08-12T03:21:12;24.50;;;13.95;;
67762;SDS011;54566;52.022;5.582;2023-08-12T03:23:38;21.90;;;13.25;;
67762;SDS011;54566;52.022;5.582;2023-08-12T03:26:04;29.00;;;14.45;;
67762;SDS011;54566;52.022;5.582;2023-08-12T03:28:31;23.83;;;14.82;;
67762;SDS011;54566;52.022;5.582;2023-08-12T03:30:57;30.83;;;14.02;;
67762;SDS011;54566;52.022;5.582;2023-08-12T03:33:23;24.05;;;14.75;;
67762;SDS011;54566;52.022;5.582;2023-08-12T03:35:49;30.95;;;15.45;;
67762;SDS011;54566;52.022;5.582;2023-08-12T03:38:15;30.52;;;17.15;;
67762;SDS011;54566;52.022;5.582;2023-08-12T03:40:42;26.25;;;16.20;;
67762;SDS011;54566;52.022;5.582;2023-08-12T03:43:08;24.92;;;15.63;;
67762;SDS011;54566;52.022;5.582;2023-08-12T03:45:40;29.80;;;16.67;;
67762;SDS011;54566;52.022;5.582;2023-08-12T03:48:07;24.08;;;16.10;;
67762;SDS011;54566;52.022;5.582;2023-08-12T03:50:33;30.70;;;17.08;;
67762;SDS011;54566;52.022;5.582;2023-08-12T03:53:00;34.85;;;17.70;;
67762;SDS011;54566;52.022;5.582;2023-08-12T03:55:26;28.38;;;17.23;;
67762;SDS011;54566;52.022;5.582;2023-08-12T03:57:52;32.13;;;16.63;;
67762;SDS011;54566;52.022;5.582;2023-08-12T04:00:18;27.70;;;16.52;;
67762;SDS011;54566;52.022;5.582;2023-08-12T04:02:44;28.90;;;17.70;;
67762;SDS011;54566;52.022;5.582;2023-08-12T04:05:10;31.77;;;16.52;;
67762;SDS011;54566;52.022;5.582;2023-08-12T04:07:36;27.27;;;17.25;;
67762;SDS011;54566;52.022;5.582;2023-08-12T04:10:02;31.02;;;17.42;;
67762;SDS011;54566;52.022;5.582;2023-08-12T04:12:29;28.55;;;17.08;;
67762;SDS011;54566;52.022;5.582;2023-08-12T04:14:55;29.95;;;16.50;;
67762;SDS011;54566;52.022;5.582;2023-08-12T04:17:21;33.17;;;16.88;;
67762;SDS011;54566;52.022;5.582;2023-08-12T04:19:47;23.73;;;15.82;;
67762;SDS011;54566;52.022;5.582;2023-08-12T04:22:14;31.80;;;16.63;;
67762;SDS011;54566;52.022;5.582;2023-08-12T04:24:43;30.83;;;16.25;;
67762;SDS011;54566;52.022;5.582;2023-08-12T04:27:09;25.63;;;14.80;;
67762;SDS011;54566;52.022;5.582;2023-08-12T04:29:36;30.98;;;16.23;;
67762;SDS011;54566;52.022;5.582;2023-08-12T04:32:02;25.45;;;15.48;;
67762;SDS011;54566;52.022;5.582;2023-08-12T04:34:28;30.55;;;15.82;;
67762;SDS011;54566;52.022;5.582;2023-08-12T04:36:54;25.20;;;15.70;;
67762;SDS011;54566;52.022;5.582;2023-08-12T04:39:21;28.47;;;15.37;;
67762;SDS011;54566;52.022;5.582;2023-08-12T04:41:47;24.77;;;15.50;;
67762;SDS011;54566;52.022;5.582;2023-08-12T04:44:13;27.23;;;16.02;;
67762;SDS011;54566;52.022;5.582;2023-08-12T04:46:39;36.30;;;15.70;;
67762;SDS011;54566;52.022;5.582;2023-08-12T04:49:05;28.80;;;15.48;;
67762;SDS011;54566;52.022;5.582;2023-08-12T04:51:31;28.67;;;14.57;;
67762;SDS011;54566;52.022;5.582;2023-08-12T04:53:57;26.45;;;14.68;;
67762;SDS011;54566;52.022;5.582;2023-08-12T04:56:25;30.92;;;15.77;;
67762;SDS011;54566;52.022;5.582;2023-08-12T04:58:54;29.25;;;15.05;;
67762;SDS011;54566;52.022;5.582;2023-08-12T05:01:20;25.38;;;14.73;;
67762;SDS011;54566;52.022;5.582;2023-08-12T05:03:47;28.95;;;13.75;;
67762;SDS011;54566;52.022;5.582;2023-08-12T05:06:13;26.80;;;14.80;;
67762;SDS011;54566;52.022;5.582;2023-08-12T05:08:39;35.78;;;14.60;;
67762;SDS011;54566;52.022;5.582;2023-08-12T05:11:05;29.50;;;14.23;;
67762;SDS011;54566;52.022;5.582;2023-08-12T05:13:31;27.75;;;14.30;;
67762;SDS011;54566;52.022;5.582;2023-08-12T05:15:57;28.73;;;14.68;;
67762;SDS011;54566;52.022;5.582;2023-08-12T05:18:23;27.30;;;13.45;;
67762;SDS011;54566;52.022;5.582;2023-08-12T05:20:50;24.60;;;13.18;;
67762;SDS011;54566;52.022;5.582;2023-08-12T05:23:16;24.33;;;13.60;;
67762;SDS011;54566;52.022;5.582;2023-08-12T05:25:42;24.02;;;14.10;;
67762;SDS011;54566;52.022;5.582;2023-08-12T05:28:08;22.80;;;13.40;;
67762;SDS011;54566;52.022;5.582;2023-08-12T05:30:35;24.98;;;14.60;;
67762;SDS011;54566;52.022;5.582;2023-08-12T05:33:01;19.92;;;12.75;;
67762;SDS011;54566;52.022;5.582;2023-08-12T05:35:27;22.85;;;14.07;;
67762;SDS011;54566;52.022;5.582;2023-08-12T05:37:53;24.60;;;13.57;;
67762;SDS011;54566;52.022;5.582;2023-08-12T05:40:19;27.77;;;18.65;;
67762;SDS011;54566;52.022;5.582;2023-08-12T05:42:45;127.20;;;85.00;;
67762;SDS011;54566;52.022;5.582;2023-08-12T05:45:11;51.50;;;34.38;;
67762;SDS011;54566;52.022;5.582;2023-08-12T05:47:37;22.30;;;12.80;;
67762;SDS011;54566;52.022;5.582;2023-08-12T05:50:03;21.58;;;12.40;;
67762;SDS011;54566;52.022;5.582;2023-08-12T05:52:32;24.27;;;12.82;;
67762;SDS011;54566;52.022;5.582;2023-08-12T05:54:58;53.30;;;27.38;;
67762;SDS011;54566;52.022;5.582;2023-08-12T05:57:24;77.22;;;42.22;;
67762;SDS011;54566;52.022;5.582;2023-08-12T05:59:50;177.93;;;117.22;;
67762;SDS011;54566;52.022;5.582;2023-08-12T06:02:16;62.83;;;39.90;;
67762;SDS011;54566;52.022;5.582;2023-08-12T06:04:43;40.53;;;23.77;;
67762;SDS011;54566;52.022;5.582;2023-08-12T06:07:09;23.95;;;15.10;;
67762;SDS011;54566;52.022;5.582;2023-08-12T06:09:35;51.13;;;33.80;;
67762;SDS011;54566;52.022;5.582;2023-08-12T06:12:01;123.68;;;105.40;;
67762;SDS011;54566;52.022;5.582;2023-08-12T06:14:28;150.18;;;128.13;;
67762;SDS011;54566;52.022;5.582;2023-08-12T06:16:54;177.93;;;107.50;;
67762;SDS011;54566;52.022;5.582;2023-08-12T06:19:20;109.97;;;85.43;;
67762;SDS011;54566;52.022;5.582;2023-08-12T06:21:46;156.70;;;68.82;;
67762;SDS011;54566;52.022;5.582;2023-08-12T06:24:12;104.57;;;49.55;;
67762;SDS011;54566;52.022;5.582;2023-08-12T06:26:38;169.38;;;92.13;;
67762;SDS011;54566;52.022;5.582;2023-08-12T06:29:06;34.28;;;19.95;;
67762;SDS011;54566;52.022;5.582;2023-08-12T06:31:33;29.95;;;19.05;;
67762;SDS011;54566;52.022;5.582;2023-08-12T06:33:58;26.80;;;16.17;;
67762;SDS011;54566;52.022;5.582;2023-08-12T06:36:25;22.45;;;15.25;;
67762;SDS011;54566;52.022;5.582;2023-08-12T06:38:51;17.77;;;9.98;;
67762;SDS011;54566;52.022;5.582;2023-08-12T06:41:17;20.83;;;10.43;;
67762;SDS011;54566;52.022;5.582;2023-08-12T06:43:43;18.92;;;8.85;;
67762;SDS011;54566;52.022;5.582;2023-08-12T06:46:09;16.92;;;9.50;;
67762;SDS011;54566;52.022;5.582;2023-08-12T06:48:35;20.92;;;10.02;;
67762;SDS011;54566;52.022;5.582;2023-08-12T06:51:01;15.38;;;8.73;;
67762;SDS011;54566;52.022;5.582;2023-08-12T06:53:35;16.52;;;8.25;;
67762;SDS011;54566;52.022;5.582;2023-08-12T06:56:01;14.55;;;7.40;;
67762;SDS011;54566;52.022;5.582;2023-08-12T06:58:27;14.20;;;8.07;;
67762;SDS011;54566;52.022;5.582;2023-08-12T07:00:53;17.45;;;6.60;;
67762;SDS011;54566;52.022;5.582;2023-08-12T07:03:19;8.90;;;6.60;;
67762;SDS011;54566;52.022;5.582;2023-08-12T07:05:45;10.68;;;7.30;;
67762;SDS011;54566;52.022;5.582;2023-08-12T07:08:11;12.57;;;8.18;;
67762;SDS011;54566;52.022;5.582;2023-08-12T07:10:38;11.80;;;7.15;;
67762;SDS011;54566;52.022;5.582;2023-08-12T07:13:04;10.60;;;6.57;;
67762;SDS011;54566;52.022;5.582;2023-08-12T07:15:30;12.55;;;6.80;;
67762;SDS011;54566;52.022;5.582;2023-08-12T07:17:57;11.93;;;5.60;;
67762;SDS011;54566;52.022;5.582;2023-08-12T07:20:27;8.82;;;5.93;;
67762;SDS011;54566;52.022;5.582;2023-08-12T07:22:53;14.40;;;6.43;;
67762;SDS011;54566;52.022;5.582;2023-08-12T07:25:19;9.60;;;5.93;;
67762;SDS011;54566;52.022;5.582;2023-08-12T07:27:45;9.15;;;6.32;;
67762;SDS011;54566;52.022;5.582;2023-08-12T07:30:11;10.98;;;5.88;;
67762;SDS011;54566;52.022;5.582;2023-08-12T07:32:37;10.43;;;6.55;;
67762;SDS011;54566;52.022;5.582;2023-08-12T07:35:04;7.72;;;5.80;;
67762;SDS011;54566;52.022;5.582;2023-08-12T07:37:31;21.52;;;6.50;;
67762;SDS011;54566;52.022;5.582;2023-08-12T07:39:57;12.50;;;6.70;;
67762;SDS011;54566;52.022;5.582;2023-08-12T07:42:23;15.30;;;6.07;;
67762;SDS011;54566;52.022;5.582;2023-08-12T07:44:49;9.35;;;6.20;;
67762;SDS011;54566;52.022;5.582;2023-08-12T07:47:15;14.75;;;6.13;;
67762;SDS011;54566;52.022;5.582;2023-08-12T07:49:41;10.93;;;7.13;;
67762;SDS011;54566;52.022;5.582;2023-08-12T07:52:07;10.50;;;6.70;;
67762;SDS011;54566;52.022;5.582;2023-08-12T07:54:33;10.52;;;5.80;;
67762;SDS011;54566;52.022;5.582;2023-08-12T07:56:59;8.35;;;6.28;;
67762;SDS011;54566;52.022;5.582;2023-08-12T07:59:26;7.57;;;5.68;;
67762;SDS011;54566;52.022;5.582;2023-08-12T08:01:52;8.02;;;5.68;;
67762;SDS011;54566;52.022;5.582;2023-08-12T08:04:18;8.07;;;5.45;;
67762;SDS011;54566;52.022;5.582;2023-08-12T08:06:44;6.72;;;4.55;;
67762;SDS011;54566;52.022;5.582;2023-08-12T08:09:10;7.03;;;3.58;;
67762;SDS011;54566;52.022;5.582;2023-08-12T08:11:36;5.50;;;3.78;;
67762;SDS011;54566;52.022;5.582;2023-08-12T08:14:02;4.00;;;3.38;;
67762;SDS011;54566;52.022;5.582;2023-08-12T08:16:28;4.05;;;3.65;;
67762;SDS011;54566;52.022;5.582;2023-08-12T08:18:54;3.58;;;3.03;;
67762;SDS011;54566;52.022;5.582;2023-08-12T08:21:20;4.70;;;3.28;;
67762;SDS011;54566;52.022;5.582;2023-08-12T08:23:46;3.60;;;2.63;;
67762;SDS011;54566;52.022;5.582;2023-08-12T08:26:12;2.67;;;2.17;;
67762;SDS011;54566;52.022;5.582;2023-08-12T08:28:40;2.80;;;2.20;;
67762;SDS011;54566;52.022;5.582;2023-08-12T08:31:06;2.60;;;2.13;;
67762;SDS011;54566;52.022;5.582;2023-08-12T08:33:32;3.58;;;1.90;;
67762;SDS011;54566;52.022;5.582;2023-08-12T08:35:58;2.53;;;2.22;;
67762;SDS011;54566;52.022;5.582;2023-08-12T08:38:24;2.00;;;1.33;;
67762;SDS011;54566;52.022;5.582;2023-08-12T08:40:50;1.70;;;1.40;;
67762;SDS011;54566;52.022;5.582;2023-08-12T08:43:19;1.20;;;1.10;;
67762;SDS011;54566;52.022;5.582;2023-08-12T08:45:47;1.30;;;0.80;;
67762;SDS011;54566;52.022;5.582;2023-08-12T08:48:14;0.70;;;0.70;;
67762;SDS011;54566;52.022;5.582;2023-08-12T08:50:40;1.65;;;1.15;;
67762;SDS011;54566;52.022;5.582;2023-08-12T08:53:07;4.93;;;1.92;;
67762;SDS011;54566;52.022;5.582;2023-08-12T08:55:33;3.45;;;2.10;;
67762;SDS011;54566;52.022;5.582;2023-08-12T08:57:59;5.32;;;1.70;;
67762;SDS011;54566;52.022;5.582;2023-08-12T09:00:25;2.67;;;2.28;;
67762;SDS011;54566;52.022;5.582;2023-08-12T09:02:52;7.23;;;2.43;;
67762;SDS011;54566;52.022;5.582;2023-08-12T09:05:20;8.60;;;3.58;;
67762;SDS011;54566;52.022;5.582;2023-08-12T09:07:46;1.63;;;1.40;;
67762;SDS011;54566;52.022;5.582;2023-08-12T09:10:13;4.40;;;2.95;;
67762;SDS011;54566;52.022;5.582;2023-08-12T09:12:39;1.23;;;0.77;;
67762;SDS011;54566;52.022;5.582;2023-08-12T09:15:05;4.53;;;3.20;;
67762;SDS011;54566;52.022;5.582;2023-08-12T09:17:31;3.03;;;2.17;;
67762;SDS011;54566;52.022;5.582;2023-08-12T09:19:59;1.92;;;1.13;;
67762;SDS011;54566;52.022;5.582;2023-08-12T09:22:25;1.90;;;1.52;;
67762;SDS011;54566;52.022;5.582;2023-08-12T09:24:58;2.72;;;1.50;;
67762;SDS011;54566;52.022;5.582;2023-08-12T09:27:24;2.78;;;2.20;;
67762;SDS011;54566;52.022;5.582;2023-08-12T09:29:51;1.92;;;1.80;;
67762;SDS011;54566;52.022;5.582;2023-08-12T09:32:21;3.97;;;2.88;;
67762;SDS011;54566;52.022;5.582;2023-08-12T09:34:52;5.93;;;3.65;;
67762;SDS011;54566;52.022;5.582;2023-08-12T09:37:19;9.65;;;7.05;;
67762;SDS011;54566;52.022;5.582;2023-08-12T09:39:46;16.33;;;11.40;;
67762;SDS011;54566;52.022;5.582;2023-08-12T09:42:12;4.78;;;2.22;;
67762;SDS011;54566;52.022;5.582;2023-08-12T09:44:38;3.50;;;1.70;;
67762;SDS011;54566;52.022;5.582;2023-08-12T09:47:05;2.47;;;1.90;;
67762;SDS011;54566;52.022;5.582;2023-08-12T09:49:31;1.90;;;1.60;;
67762;SDS011;54566;52.022;5.582;2023-08-12T09:51:58;2.58;;;1.20;;
67762;SDS011;54566;52.022;5.582;2023-08-12T09:54:27;4.38;;;1.40;;
67762;SDS011;54566;52.022;5.582;2023-08-12T09:56:57;6.97;;;2.47;;
67762;SDS011;54566;52.022;5.582;2023-08-12T09:59:31;3.17;;;1.55;;
67762;SDS011;54566;52.022;5.582;2023-08-12T10:02:06;6.15;;;1.88;;
67762;SDS011;54566;52.022;5.582;2023-08-12T10:04:50;4.60;;;2.10;;
67762;SDS011;54566;52.022;5.582;2023-08-12T10:07:39;6.05;;;2.45;;
67762;SDS011;54566;52.022;5.582;2023-08-12T10:10:05;10.10;;;4.70;;
67762;SDS011;54566;52.022;5.582;2023-08-12T10:12:32;6.75;;;4.07;;
67762;SDS011;54566;52.022;5.582;2023-08-12T10:14:59;10.13;;;4.00;;
67762;SDS011;54566;52.022;5.582;2023-08-12T10:17:26;5.90;;;2.15;;
67762;SDS011;54566;52.022;5.582;2023-08-12T10:19:56;12.27;;;5.72;;
67762;SDS011;54566;52.022;5.582;2023-08-12T10:22:23;9.95;;;5.75;;
67762;SDS011;54566;52.022;5.582;2023-08-12T10:24:50;8.53;;;3.13;;
67762;SDS011;54566;52.022;5.582;2023-08-12T10:27:17;5.43;;;2.03;;
67762;SDS011;54566;52.022;5.582;2023-08-12T10:29:43;4.70;;;1.90;;
67762;SDS011;54566;52.022;5.582;2023-08-12T10:32:09;10.65;;;2.42;;
67762;SDS011;54566;52.022;5.582;2023-08-12T10:34:36;7.88;;;1.70;;
67762;SDS011;54566;52.022;5.582;2023-08-12T10:37:02;4.75;;;1.83;;
67762;SDS011;54566;52.022;5.582;2023-08-12T10:39:30;7.35;;;1.90;;
67762;SDS011;54566;52.022;5.582;2023-08-12T10:42:00;6.18;;;1.70;;
67762;SDS011;54566;52.022;5.582;2023-08-12T10:44:39;6.18;;;1.70;;
67762;SDS011;54566;52.022;5.582;2023-08-12T10:47:07;4.50;;;1.95;;
67762;SDS011;54566;52.022;5.582;2023-08-12T10:49:37;4.35;;;1.80;;
67762;SDS011;54566;52.022;5.582;2023-08-12T10:52:04;6.40;;;1.88;;
67762;SDS011;54566;52.022;5.582;2023-08-12T10:54:30;8.98;;;1.88;;
67762;SDS011;54566;52.022;5.582;2023-08-12T11:02:26;3.47;;;1.50;;
67762;SDS011;54566;52.022;5.582;2023-08-12T11:05:04;3.35;;;1.40;;
67762;SDS011;54566;52.022;5.582;2023-08-12T11:07:34;7.57;;;1.70;;
67762;SDS011;54566;52.022;5.582;2023-08-12T11:10:04;6.82;;;1.55;;
67762;SDS011;54566;52.022;5.582;2023-08-12T11:12:31;3.70;;;2.00;;
67762;SDS011;54566;52.022;5.582;2023-08-12T11:15:00;7.18;;;1.80;;
67762;SDS011;54566;52.022;5.582;2023-08-12T11:17:33;10.13;;;1.98;;
67762;SDS011;54566;52.022;5.582;2023-08-12T11:19:59;8.32;;;2.00;;
67762;SDS011;54566;52.022;5.582;2023-08-12T11:22:26;7.03;;;2.03;;
67762;SDS011;54566;52.022;5.582;2023-08-12T11:24:52;7.95;;;1.63;;
67762;SDS011;54566;52.022;5.582;2023-08-12T11:27:21;8.60;;;2.10;;
67762;SDS011;54566;52.022;5.582;2023-08-12T11:29:49;7.95;;;2.35;;
67762;SDS011;54566;52.022;5.582;2023-08-12T11:32:17;6.13;;;2.00;;
67762;SDS011;54566;52.022;5.582;2023-08-12T11:34:43;7.95;;;1.92;;
67762;SDS011;54566;52.022;5.582;2023-08-12T11:37:09;7.35;;;2.00;;
67762;SDS011;54566;52.022;5.582;2023-08-12T11:39:35;6.57;;;1.80;;
67762;SDS011;54566;52.022;5.582;2023-08-12T11:42:02;6.73;;;1.90;;
67762;SDS011;54566;52.022;5.582;2023-08-12T11:44:28;10.73;;;2.03;;
67762;SDS011;54566;52.022;5.582;2023-08-12T11:46:54;8.10;;;1.90;;
67762;SDS011;54566;52.022;5.582;2023-08-12T11:49:20;6.80;;;2.00;;
67762;SDS011;54566;52.022;5.582;2023-08-12T11:51:47;10.95;;;2.50;;
67762;SDS011;54566;52.022;5.582;2023-08-12T11:54:14;11.48;;;2.25;;
67762;SDS011;54566;52.022;5.582;2023-08-12T11:56:41;7.63;;;2.35;;
67762;SDS011;54566;52.022;5.582;2023-08-12T11:59:07;8.65;;;2.28;;
67762;SDS011;54566;52.022;5.582;2023-08-12T12:01:34;12.57;;;2.58;;
67762;SDS011;54566;52.022;5.582;2023-08-12T12:04:00;9.48;;;2.10;;
67762;SDS011;54566;52.022;5.582;2023-08-12T12:06:30;10.45;;;2.22;;
67762;SDS011;54566;52.022;5.582;2023-08-12T12:08:59;9.00;;;1.95;;
67762;SDS011;54566;52.022;5.582;2023-08-12T12:11:27;8.30;;;2.20;;
67762;SDS011;54566;52.022;5.582;2023-08-12T12:13:53;8.13;;;2.10;;
67762;SDS011;54566;52.022;5.582;2023-08-12T12:16:19;9.10;;;2.17;;
67762;SDS011;54566;52.022;5.582;2023-08-12T12:18:45;12.77;;;3.72;;
67762;SDS011;54566;52.022;5.582;2023-08-12T12:21:11;10.98;;;2.10;;
67762;SDS011;54566;52.022;5.582;2023-08-12T12:23:37;11.07;;;1.95;;
67762;SDS011;54566;52.022;5.582;2023-08-12T12:26:03;9.40;;;1.88;;
67762;SDS011;54566;52.022;5.582;2023-08-12T12:28:30;7.00;;;2.17;;
67762;SDS011;54566;52.022;5.582;2023-08-12T12:30:56;10.38;;;2.75;;
67762;SDS011;54566;52.022;5.582;2023-08-12T12:33:22;9.05;;;2.25;;
67762;SDS011;54566;52.022;5.582;2023-08-12T12:35:48;10.10;;;2.35;;
67762;SDS011;54566;52.022;5.582;2023-08-12T12:38:14;7.13;;;2.20;;
67762;SDS011;54566;52.022;5.582;2023-08-12T12:40:40;11.70;;;2.28;;
67762;SDS011;54566;52.022;5.582;2023-08-12T12:43:06;7.68;;;2.63;;
67762;SDS011;54566;52.022;5.582;2023-08-12T12:45:32;8.95;;;2.00;;
67762;SDS011;54566;52.022;5.582;2023-08-12T12:47:58;12.93;;;2.25;;
67762;SDS011;54566;52.022;5.582;2023-08-12T12:50:24;7.85;;;2.15;;
67762;SDS011;54566;52.022;5.582;2023-08-12T12:52:50;6.47;;;1.83;;
67762;SDS011;54566;52.022;5.582;2023-08-12T12:55:16;8.68;;;2.13;;
67762;SDS011;54566;52.022;5.582;2023-08-12T12:57:43;7.00;;;1.70;;
67762;SDS011;54566;52.022;5.582;2023-08-12T13:00:09;5.88;;;2.00;;
67762;SDS011;54566;52.022;5.582;2023-08-12T13:02:36;7.32;;;2.00;;
67762;SDS011;54566;52.022;5.582;2023-08-12T13:05:02;8.23;;;1.77;;
67762;SDS011;54566;52.022;5.582;2023-08-12T13:07:28;9.10;;;2.30;;
67762;SDS011;54566;52.022;5.582;2023-08-12T13:09:54;11.07;;;2.53;;
67762;SDS011;54566;52.022;5.582;2023-08-12T13:12:20;7.25;;;1.85;;
67762;SDS011;54566;52.022;5.582;2023-08-12T13:14:47;10.07;;;1.90;;
67762;SDS011;54566;52.022;5.582;2023-08-12T13:17:13;12.77;;;2.42;;
67762;SDS011;54566;52.022;5.582;2023-08-12T13:19:39;6.35;;;1.85;;
67762;SDS011;54566;52.022;5.582;2023-08-12T13:22:05;7.85;;;2.35;;
67762;SDS011;54566;52.022;5.582;2023-08-12T13:24:31;11.10;;;2.53;;
67762;SDS011;54566;52.022;5.582;2023-08-12T13:26:57;7.53;;;2.22;;
67762;SDS011;54566;52.022;5.582;2023-08-12T13:29:23;10.38;;;2.50;;
67762;SDS011;54566;52.022;5.582;2023-08-12T13:31:49;7.13;;;2.10;;
67762;SDS011;54566;52.022;5.582;2023-08-12T13:34:15;10.45;;;2.08;;
67762;SDS011;54566;52.022;5.582;2023-08-12T13:36:41;8.00;;;2.17;;
67762;SDS011;54566;52.022;5.582;2023-08-12T13:39:07;9.43;;;1.95;;
67762;SDS011;54566;52.022;5.582;2023-08-12T13:41:33;5.72;;;2.28;;
67762;SDS011;54566;52.022;5.582;2023-08-12T13:43:59;9.80;;;2.30;;
67762;SDS011;54566;52.022;5.582;2023-08-12T13:46:25;9.32;;;2.17;;
67762;SDS011;54566;52.022;5.582;2023-08-12T13:48:52;8.90;;;2.40;;
67762;SDS011;54566;52.022;5.582;2023-08-12T13:51:18;9.80;;;2.22;;
67762;SDS011;54566;52.022;5.582;2023-08-12T13:53:44;10.98;;;2.95;;
67762;SDS011;54566;52.022;5.582;2023-08-12T13:56:10;11.35;;;2.42;;
67762;SDS011;54566;52.022;5.582;2023-08-12T13:58:36;9.38;;;2.63;;
67762;SDS011;54566;52.022;5.582;2023-08-12T14:01:02;9.57;;;2.33;;
67762;SDS011;54566;52.022;5.582;2023-08-12T14:03:28;7.15;;;2.35;;
67762;SDS011;54566;52.022;5.582;2023-08-12T14:05:55;8.20;;;2.35;;
67762;SDS011;54566;52.022;5.582;2023-08-12T14:08:21;13.52;;;2.60;;
67762;SDS011;54566;52.022;5.582;2023-08-12T14:10:47;13.43;;;2.67;;
67762;SDS011;54566;52.022;5.582;2023-08-12T14:13:15;12.45;;;2.88;;
67762;SDS011;54566;52.022;5.582;2023-08-12T14:15:41;13.10;;;2.30;;
67762;SDS011;54566;52.022;5.582;2023-08-12T14:18:07;12.88;;;3.03;;
67762;SDS011;54566;52.022;5.582;2023-08-12T14:20:33;13.80;;;2.95;;
67762;SDS011;54566;52.022;5.582;2023-08-12T14:22:59;10.70;;;2.65;;
67762;SDS011;54566;52.022;5.582;2023-08-12T14:25:25;14.50;;;2.50;;
67762;SDS011;54566;52.022;5.582;2023-08-12T14:27:51;14.95;;;2.50;;
67762;SDS011;54566;52.022;5.582;2023-08-12T14:30:22;8.48;;;2.55;;
67762;SDS011;54566;52.022;5.582;2023-08-12T14:32:48;13.32;;;2.67;;
67762;SDS011;54566;52.022;5.582;2023-08-12T14:35:15;17.98;;;2.70;;
67762;SDS011;54566;52.022;5.582;2023-08-12T14:37:41;12.07;;;2.50;;
67762;SDS011;54566;52.022;5.582;2023-08-12T14:40:07;9.60;;;2.55;;